sensor_id;sensor_type;location;lat;lon;timestamp;P1;durP1;ratioP1;P2;durP2;ratioP2
20454;SDS011;10386;54.314;10.022;2023-08-12T00:01:17;4.70;;;3.35;;
20454;SDS011;10386;54.314;10.022;2023-08-12T00:03:47;5.35;;;3.25;;
20454;SDS011;10386;54.314;10.022;2023-08-12T00:06:14;8.05;;;3.47;;
20454;SDS011;10386;54.314;10.022;2023-08-12T00:08:41;8.10;;;3.40;;
20454;SDS011;10386;54.314;10.022;2023-08-12T00:11:08;5.50;;;3.40;;
20454;SDS011;10386;54.314;10.022;2023-08-12T00:13:35;4.20;;;3.35;;
20454;SDS011;10386;54.314;10.022;2023-08-12T00:16:02;9.13;;;3.72;;
20454;SDS011;10386;54.314;10.022;2023-08-12T00:18:28;5.20;;;3.42;;
20454;SDS011;10386;54.314;10.022;2023-08-12T00:20:55;4.43;;;3.47;;
20454;SDS011;10386;54.314;10.022;2023-08-12T00:23:22;6.55;;;4.05;;
20454;SDS011;10386;54.314;10.022;2023-08-12T00:25:49;5.38;;;3.75;;
20454;SDS011;10386;54.314;10.022;2023-08-12T00:28:15;4.68;;;3.70;;
20454;SDS011;10386;54.314;10.022;2023-08-12T00:30:42;7.28;;;3.45;;
20454;SDS011;10386;54.314;10.022;2023-08-12T00:33:09;7.05;;;3.70;;
20454;SDS011;10386;54.314;10.022;2023-08-12T00:35:36;5.70;;;3.50;;
20454;SDS011;10386;54.314;10.022;2023-08-12T00:38:02;6.82;;;3.60;;
20454;SDS011;10386;54.314;10.022;2023-08-12T00:40:29;5.07;;;3.65;;
20454;SDS011;10386;54.314;10.022;2023-08-12T00:42:56;10.35;;;3.83;;
20454;SDS011;10386;54.314;10.022;2023-08-12T00:45:23;5.03;;;3.50;;
20454;SDS011;10386;54.314;10.022;2023-08-12T00:47:50;8.65;;;4.10;;
20454;SDS011;10386;54.314;10.022;2023-08-12T00:50:16;9.80;;;4.10;;
20454;SDS011;10386;54.314;10.022;2023-08-12T00:52:43;5.00;;;3.33;;
20454;SDS011;10386;54.314;10.022;2023-08-12T00:55:11;5.55;;;3.78;;
20454;SDS011;10386;54.314;10.022;2023-08-12T00:57:38;9.85;;;3.83;;
20454;SDS011;10386;54.314;10.022;2023-08-12T01:00:05;4.25;;;3.85;;
20454;SDS011;10386;54.314;10.022;2023-08-12T01:02:32;5.80;;;3.20;;
20454;SDS011;10386;54.314;10.022;2023-08-12T01:05:00;5.82;;;3.67;;
20454;SDS011;10386;54.314;10.022;2023-08-12T01:07:27;5.20;;;3.45;;
20454;SDS011;10386;54.314;10.022;2023-08-12T01:09:53;4.93;;;3.58;;
20454;SDS011;10386;54.314;10.022;2023-08-12T01:17:22;5.03;;;3.50;;
20454;SDS011;10386;54.314;10.022;2023-08-12T01:19:49;6.50;;;3.60;;
20454;SDS011;10386;54.314;10.022;2023-08-12T01:22:17;7.80;;;3.60;;
20454;SDS011;10386;54.314;10.022;2023-08-12T01:24:48;5.80;;;3.63;;
20454;SDS011;10386;54.314;10.022;2023-08-12T01:27:14;4.53;;;3.50;;
20454;SDS011;10386;54.314;10.022;2023-08-12T01:29:42;5.05;;;3.80;;
20454;SDS011;10386;54.314;10.022;2023-08-12T01:32:14;4.03;;;3.40;;
20454;SDS011;10386;54.314;10.022;2023-08-12T01:35:12;5.28;;;3.60;;
20454;SDS011;10386;54.314;10.022;2023-08-12T01:37:44;8.57;;;3.67;;
20454;SDS011;10386;54.314;10.022;2023-08-12T01:40:12;6.45;;;3.47;;
20454;SDS011;10386;54.314;10.022;2023-08-12T01:42:41;3.88;;;3.53;;
20454;SDS011;10386;54.314;10.022;2023-08-12T01:45:09;5.45;;;3.80;;
20454;SDS011;10386;54.314;10.022;2023-08-12T01:47:36;5.28;;;3.97;;
20454;SDS011;10386;54.314;10.022;2023-08-12T01:50:03;6.72;;;3.97;;
20454;SDS011;10386;54.314;10.022;2023-08-12T01:52:30;4.15;;;3.75;;
20454;SDS011;10386;54.314;10.022;2023-08-12T01:54:57;5.32;;;3.60;;
20454;SDS011;10386;54.314;10.022;2023-08-12T01:57:24;6.22;;;3.50;;
20454;SDS011;10386;54.314;10.022;2023-08-12T01:59:51;8.88;;;3.67;;
20454;SDS011;10386;54.314;10.022;2023-08-12T02:02:18;6.47;;;3.92;;
20454;SDS011;10386;54.314;10.022;2023-08-12T02:04:45;5.80;;;3.95;;
20454;SDS011;10386;54.314;10.022;2023-08-12T02:07:12;5.43;;;3.95;;
20454;SDS011;10386;54.314;10.022;2023-08-12T02:09:39;4.88;;;3.78;;
20454;SDS011;10386;54.314;10.022;2023-08-12T02:12:06;6.95;;;4.30;;
20454;SDS011;10386;54.314;10.022;2023-08-12T02:14:33;5.80;;;4.00;;
20454;SDS011;10386;54.314;10.022;2023-08-12T02:17:00;6.20;;;4.00;;
20454;SDS011;10386;54.314;10.022;2023-08-12T02:19:27;4.32;;;3.90;;
20454;SDS011;10386;54.314;10.022;2023-08-12T02:21:54;4.88;;;4.15;;
20454;SDS011;10386;54.314;10.022;2023-08-12T02:24:20;11.60;;;4.03;;
20454;SDS011;10386;54.314;10.022;2023-08-12T02:26:47;7.47;;;3.78;;
20454;SDS011;10386;54.314;10.022;2023-08-12T02:29:14;6.85;;;3.50;;
20454;SDS011;10386;54.314;10.022;2023-08-12T02:31:40;5.90;;;4.00;;
20454;SDS011;10386;54.314;10.022;2023-08-12T02:34:07;4.60;;;4.05;;
20454;SDS011;10386;54.314;10.022;2023-08-12T02:36:34;6.35;;;4.40;;
20454;SDS011;10386;54.314;10.022;2023-08-12T02:39:01;5.85;;;3.63;;
20454;SDS011;10386;54.314;10.022;2023-08-12T02:41:28;5.20;;;3.70;;
20454;SDS011;10386;54.314;10.022;2023-08-12T02:43:54;4.93;;;3.58;;
20454;SDS011;10386;54.314;10.022;2023-08-12T02:46:21;4.78;;;3.67;;
20454;SDS011;10386;54.314;10.022;2023-08-12T02:48:50;5.63;;;3.85;;
20454;SDS011;10386;54.314;10.022;2023-08-12T02:51:16;5.55;;;3.75;;
20454;SDS011;10386;54.314;10.022;2023-08-12T02:53:43;8.23;;;4.00;;
20454;SDS011;10386;54.314;10.022;2023-08-12T02:56:10;15.35;;;4.20;;
20454;SDS011;10386;54.314;10.022;2023-08-12T02:58:37;5.05;;;4.10;;
20454;SDS011;10386;54.314;10.022;2023-08-12T03:01:04;6.47;;;4.03;;
20454;SDS011;10386;54.314;10.022;2023-08-12T03:03:30;8.10;;;4.15;;
20454;SDS011;10386;54.314;10.022;2023-08-12T03:05:57;4.70;;;3.97;;
20454;SDS011;10386;54.314;10.022;2023-08-12T03:08:24;8.60;;;3.90;;
20454;SDS011;10386;54.314;10.022;2023-08-12T03:10:57;4.28;;;3.88;;
20454;SDS011;10386;54.314;10.022;2023-08-12T03:13:25;4.68;;;4.20;;
20454;SDS011;10386;54.314;10.022;2023-08-12T03:15:52;4.40;;;3.78;;
20454;SDS011;10386;54.314;10.022;2023-08-12T03:18:18;7.32;;;4.03;;
20454;SDS011;10386;54.314;10.022;2023-08-12T03:20:45;8.30;;;4.25;;
20454;SDS011;10386;54.314;10.022;2023-08-12T03:23:12;7.25;;;4.28;;
20454;SDS011;10386;54.314;10.022;2023-08-12T03:25:39;7.18;;;5.00;;
20454;SDS011;10386;54.314;10.022;2023-08-12T03:28:05;4.78;;;4.28;;
20454;SDS011;10386;54.314;10.022;2023-08-12T03:30:32;11.23;;;4.57;;
20454;SDS011;10386;54.314;10.022;2023-08-12T03:32:59;5.72;;;4.20;;
20454;SDS011;10386;54.314;10.022;2023-08-12T03:35:26;5.43;;;3.92;;
20454;SDS011;10386;54.314;10.022;2023-08-12T03:37:52;6.10;;;4.22;;
20454;SDS011;10386;54.314;10.022;2023-08-12T03:40:20;7.28;;;4.60;;
20454;SDS011;10386;54.314;10.022;2023-08-12T03:42:47;6.07;;;4.22;;
20454;SDS011;10386;54.314;10.022;2023-08-12T03:45:13;5.07;;;4.60;;
20454;SDS011;10386;54.314;10.022;2023-08-12T03:47:40;7.65;;;4.70;;
20454;SDS011;10386;54.314;10.022;2023-08-12T03:50:07;5.93;;;4.43;;
20454;SDS011;10386;54.314;10.022;2023-08-12T03:52:34;5.45;;;4.40;;
20454;SDS011;10386;54.314;10.022;2023-08-12T03:55:01;6.55;;;4.90;;
20454;SDS011;10386;54.314;10.022;2023-08-12T03:57:27;5.72;;;4.30;;
20454;SDS011;10386;54.314;10.022;2023-08-12T03:59:54;5.82;;;4.82;;
20454;SDS011;10386;54.314;10.022;2023-08-12T04:02:21;9.27;;;4.85;;
20454;SDS011;10386;54.314;10.022;2023-08-12T04:04:48;5.38;;;4.88;;
20454;SDS011;10386;54.314;10.022;2023-08-12T04:07:15;8.65;;;5.13;;
20454;SDS011;10386;54.314;10.022;2023-08-12T04:09:41;11.13;;;5.25;;
20454;SDS011;10386;54.314;10.022;2023-08-12T04:12:08;5.30;;;4.80;;
20454;SDS011;10386;54.314;10.022;2023-08-12T04:14:35;8.10;;;5.30;;
20454;SDS011;10386;54.314;10.022;2023-08-12T04:17:01;7.55;;;5.10;;
20454;SDS011;10386;54.314;10.022;2023-08-12T04:19:28;6.80;;;5.70;;
20454;SDS011;10386;54.314;10.022;2023-08-12T04:21:55;7.45;;;5.25;;
20454;SDS011;10386;54.314;10.022;2023-08-12T04:24:22;8.52;;;5.43;;
20454;SDS011;10386;54.314;10.022;2023-08-12T04:26:49;10.10;;;5.57;;
20454;SDS011;10386;54.314;10.022;2023-08-12T04:29:15;8.63;;;4.95;;
20454;SDS011;10386;54.314;10.022;2023-08-12T04:31:42;9.45;;;5.60;;
20454;SDS011;10386;54.314;10.022;2023-08-12T04:34:09;8.98;;;4.78;;
20454;SDS011;10386;54.314;10.022;2023-08-12T04:36:35;7.20;;;5.57;;
20454;SDS011;10386;54.314;10.022;2023-08-12T04:39:03;9.85;;;5.55;;
20454;SDS011;10386;54.314;10.022;2023-08-12T04:41:30;8.90;;;5.50;;
20454;SDS011;10386;54.314;10.022;2023-08-12T04:43:57;6.25;;;5.05;;
20454;SDS011;10386;54.314;10.022;2023-08-12T04:46:24;7.40;;;5.00;;
20454;SDS011;10386;54.314;10.022;2023-08-12T04:48:54;7.85;;;5.50;;
20454;SDS011;10386;54.314;10.022;2023-08-12T04:51:21;10.15;;;6.35;;
20454;SDS011;10386;54.314;10.022;2023-08-12T04:53:48;8.75;;;5.22;;
20454;SDS011;10386;54.314;10.022;2023-08-12T04:56:15;10.48;;;5.50;;
20454;SDS011;10386;54.314;10.022;2023-08-12T04:58:41;9.10;;;5.88;;
20454;SDS011;10386;54.314;10.022;2023-08-12T05:01:08;8.63;;;5.72;;
20454;SDS011;10386;54.314;10.022;2023-08-12T05:03:35;12.13;;;5.88;;
20454;SDS011;10386;54.314;10.022;2023-08-12T05:06:02;10.63;;;5.63;;
20454;SDS011;10386;54.314;10.022;2023-08-12T05:08:28;7.25;;;5.80;;
20454;SDS011;10386;54.314;10.022;2023-08-12T05:10:55;8.18;;;5.80;;
20454;SDS011;10386;54.314;10.022;2023-08-12T05:13:22;8.07;;;5.80;;
20454;SDS011;10386;54.314;10.022;2023-08-12T05:15:50;9.98;;;6.50;;
20454;SDS011;10386;54.314;10.022;2023-08-12T05:18:16;8.57;;;5.93;;
20454;SDS011;10386;54.314;10.022;2023-08-12T05:20:43;7.90;;;6.50;;
20454;SDS011;10386;54.314;10.022;2023-08-12T05:23:12;10.60;;;6.25;;
20454;SDS011;10386;54.314;10.022;2023-08-12T05:25:39;12.27;;;6.57;;
20454;SDS011;10386;54.314;10.022;2023-08-12T05:28:07;8.82;;;6.07;;
20454;SDS011;10386;54.314;10.022;2023-08-12T05:30:34;10.20;;;6.82;;
20454;SDS011;10386;54.314;10.022;2023-08-12T05:33:01;11.98;;;6.85;;
20454;SDS011;10386;54.314;10.022;2023-08-12T05:35:32;11.40;;;6.47;;
20454;SDS011;10386;54.314;10.022;2023-08-12T05:38:00;11.63;;;6.43;;
20454;SDS011;10386;54.314;10.022;2023-08-12T05:40:27;8.65;;;6.40;;
20454;SDS011;10386;54.314;10.022;2023-08-12T05:42:54;8.65;;;6.50;;
20454;SDS011;10386;54.314;10.022;2023-08-12T05:45:23;7.95;;;6.35;;
20454;SDS011;10386;54.314;10.022;2023-08-12T05:47:50;9.35;;;7.10;;
20454;SDS011;10386;54.314;10.022;2023-08-12T05:50:17;11.10;;;6.93;;
20454;SDS011;10386;54.314;10.022;2023-08-12T05:52:43;13.52;;;6.90;;
20454;SDS011;10386;54.314;10.022;2023-08-12T05:55:10;7.68;;;6.68;;
20454;SDS011;10386;54.314;10.022;2023-08-12T05:57:37;11.95;;;6.43;;
20454;SDS011;10386;54.314;10.022;2023-08-12T06:00:04;9.05;;;5.88;;
20454;SDS011;10386;54.314;10.022;2023-08-12T06:02:32;10.05;;;6.72;;
20454;SDS011;10386;54.314;10.022;2023-08-12T06:04:59;11.40;;;7.20;;
20454;SDS011;10386;54.314;10.022;2023-08-12T06:07:26;9.65;;;7.47;;
20454;SDS011;10386;54.314;10.022;2023-08-12T06:09:52;9.05;;;6.35;;
20454;SDS011;10386;54.314;10.022;2023-08-12T06:12:19;11.43;;;7.20;;
20454;SDS011;10386;54.314;10.022;2023-08-12T06:14:46;11.40;;;7.80;;
20454;SDS011;10386;54.314;10.022;2023-08-12T06:17:13;9.32;;;7.13;;
20454;SDS011;10386;54.314;10.022;2023-08-12T06:19:39;11.65;;;7.85;;
20454;SDS011;10386;54.314;10.022;2023-08-12T06:22:06;13.18;;;8.10;;
20454;SDS011;10386;54.314;10.022;2023-08-12T06:24:33;9.98;;;7.13;;
20454;SDS011;10386;54.314;10.022;2023-08-12T06:27:00;9.18;;;7.22;;
20454;SDS011;10386;54.314;10.022;2023-08-12T06:29:26;12.90;;;7.68;;
20454;SDS011;10386;54.314;10.022;2023-08-12T06:31:53;10.85;;;7.90;;
20454;SDS011;10386;54.314;10.022;2023-08-12T06:34:20;10.13;;;7.60;;
20454;SDS011;10386;54.314;10.022;2023-08-12T06:36:47;12.52;;;7.80;;
20454;SDS011;10386;54.314;10.022;2023-08-12T06:39:14;10.20;;;8.30;;
20454;SDS011;10386;54.314;10.022;2023-08-12T06:41:41;10.18;;;7.35;;
20454;SDS011;10386;54.314;10.022;2023-08-12T06:44:07;13.10;;;7.88;;
20454;SDS011;10386;54.314;10.022;2023-08-12T06:46:34;12.45;;;8.48;;
20454;SDS011;10386;54.314;10.022;2023-08-12T06:49:01;12.90;;;8.70;;
20454;SDS011;10386;54.314;10.022;2023-08-12T06:51:28;9.18;;;7.60;;
20454;SDS011;10386;54.314;10.022;2023-08-12T06:53:54;12.65;;;8.88;;
20454;SDS011;10386;54.314;10.022;2023-08-12T06:56:21;12.32;;;8.23;;
20454;SDS011;10386;54.314;10.022;2023-08-12T06:58:48;13.32;;;8.75;;
20454;SDS011;10386;54.314;10.022;2023-08-12T07:01:15;11.02;;;8.57;;
20454;SDS011;10386;54.314;10.022;2023-08-12T07:03:42;16.15;;;7.78;;
20454;SDS011;10386;54.314;10.022;2023-08-12T07:06:09;12.18;;;8.02;;
20454;SDS011;10386;54.314;10.022;2023-08-12T07:08:35;13.25;;;8.75;;
20454;SDS011;10386;54.314;10.022;2023-08-12T07:11:02;10.23;;;8.07;;
20454;SDS011;10386;54.314;10.022;2023-08-12T07:13:29;12.20;;;8.13;;
20454;SDS011;10386;54.314;10.022;2023-08-12T07:15:56;14.27;;;8.50;;
20454;SDS011;10386;54.314;10.022;2023-08-12T07:18:22;12.20;;;8.68;;
20454;SDS011;10386;54.314;10.022;2023-08-12T07:20:50;10.82;;;8.80;;
20454;SDS011;10386;54.314;10.022;2023-08-12T07:23:16;10.27;;;7.90;;
20454;SDS011;10386;54.314;10.022;2023-08-12T07:25:45;11.13;;;8.23;;
20454;SDS011;10386;54.314;10.022;2023-08-12T07:28:13;10.88;;;8.32;;
20454;SDS011;10386;54.314;10.022;2023-08-12T07:30:39;11.55;;;8.10;;
20454;SDS011;10386;54.314;10.022;2023-08-12T07:33:06;14.48;;;9.05;;
20454;SDS011;10386;54.314;10.022;2023-08-12T07:35:33;12.75;;;8.27;;
20454;SDS011;10386;54.314;10.022;2023-08-12T07:38:00;14.10;;;8.52;;
20454;SDS011;10386;54.314;10.022;2023-08-12T07:40:27;11.93;;;8.52;;
20454;SDS011;10386;54.314;10.022;2023-08-12T07:42:54;13.55;;;8.90;;
20454;SDS011;10386;54.314;10.022;2023-08-12T07:45:21;15.07;;;9.32;;
20454;SDS011;10386;54.314;10.022;2023-08-12T07:47:49;14.95;;;8.55;;
20454;SDS011;10386;54.314;10.022;2023-08-12T07:50:16;11.70;;;8.77;;
20454;SDS011;10386;54.314;10.022;2023-08-12T07:52:44;14.35;;;9.82;;
20454;SDS011;10386;54.314;10.022;2023-08-12T07:55:10;13.25;;;9.48;;
20454;SDS011;10386;54.314;10.022;2023-08-12T07:57:38;13.60;;;9.52;;
20454;SDS011;10386;54.314;10.022;2023-08-12T08:00:07;11.65;;;8.77;;
20454;SDS011;10386;54.314;10.022;2023-08-12T08:02:34;14.18;;;8.80;;
20454;SDS011;10386;54.314;10.022;2023-08-12T08:05:01;11.50;;;8.73;;
20454;SDS011;10386;54.314;10.022;2023-08-12T08:07:29;12.60;;;8.63;;
20454;SDS011;10386;54.314;10.022;2023-08-12T08:09:56;14.50;;;8.73;;
20454;SDS011;10386;54.314;10.022;2023-08-12T08:12:23;12.00;;;8.80;;
20454;SDS011;10386;54.314;10.022;2023-08-12T08:14:50;13.45;;;8.80;;
20454;SDS011;10386;54.314;10.022;2023-08-12T08:17:17;16.35;;;9.20;;
20454;SDS011;10386;54.314;10.022;2023-08-12T08:19:44;14.77;;;9.55;;
20454;SDS011;10386;54.314;10.022;2023-08-12T08:22:10;13.38;;;8.65;;
20454;SDS011;10386;54.314;10.022;2023-08-12T08:24:38;14.93;;;9.82;;
20454;SDS011;10386;54.314;10.022;2023-08-12T08:27:05;13.18;;;8.75;;
20454;SDS011;10386;54.314;10.022;2023-08-12T08:29:31;11.02;;;8.48;;
20454;SDS011;10386;54.314;10.022;2023-08-12T08:31:58;13.93;;;9.02;;
20454;SDS011;10386;54.314;10.022;2023-08-12T08:34:25;11.88;;;8.88;;
20454;SDS011;10386;54.314;10.022;2023-08-12T08:36:52;13.70;;;9.38;;
20454;SDS011;10386;54.314;10.022;2023-08-12T08:39:19;15.73;;;8.93;;
20454;SDS011;10386;54.314;10.022;2023-08-12T08:41:45;12.82;;;8.52;;
20454;SDS011;10386;54.314;10.022;2023-08-12T08:44:14;11.27;;;8.38;;
20454;SDS011;10386;54.314;10.022;2023-08-12T08:46:43;10.57;;;8.07;;
20454;SDS011;10386;54.314;10.022;2023-08-12T08:49:10;12.15;;;8.50;;
20454;SDS011;10386;54.314;10.022;2023-08-12T08:51:38;13.73;;;8.55;;
20454;SDS011;10386;54.314;10.022;2023-08-12T08:54:05;14.20;;;8.38;;
20454;SDS011;10386;54.314;10.022;2023-08-12T08:56:32;12.23;;;8.20;;
20454;SDS011;10386;54.314;10.022;2023-08-12T08:59:02;12.88;;;8.35;;
20454;SDS011;10386;54.314;10.022;2023-08-12T09:01:29;11.48;;;7.93;;
20454;SDS011;10386;54.314;10.022;2023-08-12T09:03:57;14.95;;;8.60;;
20454;SDS011;10386;54.314;10.022;2023-08-12T09:06:25;15.15;;;8.57;;
20454;SDS011;10386;54.314;10.022;2023-08-12T09:08:54;9.82;;;7.10;;
20454;SDS011;10386;54.314;10.022;2023-08-12T09:11:21;10.95;;;8.60;;
20454;SDS011;10386;54.314;10.022;2023-08-12T09:13:48;12.63;;;9.38;;
20454;SDS011;10386;54.314;10.022;2023-08-12T09:16:15;13.35;;;9.35;;
20454;SDS011;10386;54.314;10.022;2023-08-12T09:18:42;14.63;;;9.15;;
20454;SDS011;10386;54.314;10.022;2023-08-12T09:21:10;10.30;;;7.90;;
20454;SDS011;10386;54.314;10.022;2023-08-12T09:23:38;17.38;;;8.82;;
20454;SDS011;10386;54.314;10.022;2023-08-12T09:26:13;14.15;;;9.05;;
20454;SDS011;10386;54.314;10.022;2023-08-12T09:28:41;13.07;;;8.82;;
20454;SDS011;10386;54.314;10.022;2023-08-12T09:31:21;11.88;;;7.80;;
20454;SDS011;10386;54.314;10.022;2023-08-12T09:33:53;14.23;;;7.93;;
20454;SDS011;10386;54.314;10.022;2023-08-12T09:36:23;13.02;;;8.55;;
20454;SDS011;10386;54.314;10.022;2023-08-12T09:38:50;12.00;;;8.00;;
20454;SDS011;10386;54.314;10.022;2023-08-12T09:41:17;13.55;;;8.65;;
20454;SDS011;10386;54.314;10.022;2023-08-12T09:43:44;11.35;;;8.63;;
20454;SDS011;10386;54.314;10.022;2023-08-12T09:46:12;12.48;;;8.45;;
20454;SDS011;10386;54.314;10.022;2023-08-12T09:48:42;15.07;;;9.15;;
20454;SDS011;10386;54.314;10.022;2023-08-12T09:51:09;14.98;;;9.38;;
20454;SDS011;10386;54.314;10.022;2023-08-12T09:53:37;13.07;;;9.02;;
20454;SDS011;10386;54.314;10.022;2023-08-12T09:56:07;14.73;;;9.40;;
20454;SDS011;10386;54.314;10.022;2023-08-12T09:58:37;15.35;;;9.05;;
20454;SDS011;10386;54.314;10.022;2023-08-12T10:01:06;11.48;;;8.30;;
20454;SDS011;10386;54.314;10.022;2023-08-12T10:03:37;10.63;;;8.35;;
20454;SDS011;10386;54.314;10.022;2023-08-12T10:06:04;14.35;;;8.20;;
20454;SDS011;10386;54.314;10.022;2023-08-12T10:08:31;10.38;;;7.47;;
20454;SDS011;10386;54.314;10.022;2023-08-12T10:10:59;10.18;;;7.43;;
20454;SDS011;10386;54.314;10.022;2023-08-12T10:13:39;11.65;;;7.85;;
20454;SDS011;10386;54.314;10.022;2023-08-12T10:16:07;11.35;;;8.20;;
20454;SDS011;10386;54.314;10.022;2023-08-12T10:18:36;13.20;;;7.30;;
20454;SDS011;10386;54.314;10.022;2023-08-12T10:21:04;11.57;;;7.88;;
20454;SDS011;10386;54.314;10.022;2023-08-12T10:23:35;11.32;;;7.40;;
20454;SDS011;10386;54.314;10.022;2023-08-12T10:26:02;14.38;;;7.85;;
20454;SDS011;10386;54.314;10.022;2023-08-12T10:28:31;10.45;;;7.72;;
20454;SDS011;10386;54.314;10.022;2023-08-12T10:31:04;15.68;;;8.30;;
20454;SDS011;10386;54.314;10.022;2023-08-12T10:33:35;13.43;;;8.45;;
20454;SDS011;10386;54.314;10.022;2023-08-12T10:36:03;12.73;;;8.18;;
20454;SDS011;10386;54.314;10.022;2023-08-12T10:38:31;13.10;;;9.02;;
20454;SDS011;10386;54.314;10.022;2023-08-12T10:43:52;12.15;;;8.00;;
20454;SDS011;10386;54.314;10.022;2023-08-12T10:46:30;10.30;;;7.53;;
20454;SDS011;10386;54.314;10.022;2023-08-12T10:49:07;14.55;;;8.10;;
20454;SDS011;10386;54.314;10.022;2023-08-12T10:51:46;11.57;;;8.05;;
20454;SDS011;10386;54.314;10.022;2023-08-12T10:54:20;13.10;;;8.48;;
20454;SDS011;10386;54.314;10.022;2023-08-12T10:57:06;18.42;;;8.73;;
20454;SDS011;10386;54.314;10.022;2023-08-12T11:02:16;11.77;;;8.70;;
20454;SDS011;10386;54.314;10.022;2023-08-12T11:05:01;13.60;;;8.40;;
20454;SDS011;10386;54.314;10.022;2023-08-12T11:07:37;14.68;;;9.10;;
20454;SDS011;10386;54.314;10.022;2023-08-12T11:10:05;13.32;;;8.70;;
20454;SDS011;10386;54.314;10.022;2023-08-12T11:12:36;13.88;;;8.77;;
20454;SDS011;10386;54.314;10.022;2023-08-12T11:15:03;16.25;;;10.10;;
20454;SDS011;10386;54.314;10.022;2023-08-12T11:20:01;14.82;;;9.52;;
20454;SDS011;10386;54.314;10.022;2023-08-12T11:22:33;17.40;;;8.95;;
20454;SDS011;10386;54.314;10.022;2023-08-12T11:25:04;14.23;;;8.93;;
20454;SDS011;10386;54.314;10.022;2023-08-12T11:27:36;20.40;;;9.23;;
20454;SDS011;10386;54.314;10.022;2023-08-12T11:30:04;12.15;;;9.32;;
20454;SDS011;10386;54.314;10.022;2023-08-12T11:32:31;14.40;;;9.15;;
20454;SDS011;10386;54.314;10.022;2023-08-12T11:34:58;13.48;;;9.10;;
20454;SDS011;10386;54.314;10.022;2023-08-12T11:37:26;13.50;;;9.98;;
20454;SDS011;10386;54.314;10.022;2023-08-12T11:39:53;24.17;;;9.43;;
20454;SDS011;10386;54.314;10.022;2023-08-12T11:42:19;14.38;;;9.77;;
20454;SDS011;10386;54.314;10.022;2023-08-12T11:44:46;13.35;;;9.60;;
20454;SDS011;10386;54.314;10.022;2023-08-12T11:47:13;16.83;;;9.30;;
20454;SDS011;10386;54.314;10.022;2023-08-12T11:49:39;16.15;;;10.30;;
20454;SDS011;10386;54.314;10.022;2023-08-12T11:52:08;16.65;;;10.18;;
20454;SDS011;10386;54.314;10.022;2023-08-12T11:54:38;17.45;;;9.85;;
20454;SDS011;10386;54.314;10.022;2023-08-12T11:57:05;12.73;;;9.20;;
20454;SDS011;10386;54.314;10.022;2023-08-12T11:59:36;15.05;;;9.82;;
20454;SDS011;10386;54.314;10.022;2023-08-12T12:02:03;12.75;;;8.85;;
20454;SDS011;10386;54.314;10.022;2023-08-12T12:04:31;14.68;;;9.13;;
20454;SDS011;10386;54.314;10.022;2023-08-12T12:06:58;17.40;;;9.40;;
20454;SDS011;10386;54.314;10.022;2023-08-12T12:09:26;19.70;;;9.45;;
20454;SDS011;10386;54.314;10.022;2023-08-12T12:11:55;16.48;;;9.88;;
20454;SDS011;10386;54.314;10.022;2023-08-12T12:14:22;14.35;;;9.75;;
20454;SDS011;10386;54.314;10.022;2023-08-12T12:16:49;11.98;;;8.40;;
20454;SDS011;10386;54.314;10.022;2023-08-12T12:19:21;11.15;;;7.80;;
20454;SDS011;10386;54.314;10.022;2023-08-12T12:21:50;11.43;;;7.88;;
20454;SDS011;10386;54.314;10.022;2023-08-12T12:24:18;10.32;;;8.40;;
20454;SDS011;10386;54.314;10.022;2023-08-12T12:26:46;8.75;;;7.20;;
20454;SDS011;10386;54.314;10.022;2023-08-12T12:29:13;10.20;;;7.38;;
20454;SDS011;10386;54.314;10.022;2023-08-12T12:31:40;12.70;;;7.90;;
20454;SDS011;10386;54.314;10.022;2023-08-12T12:34:08;10.77;;;7.45;;
20454;SDS011;10386;54.314;10.022;2023-08-12T12:36:38;9.82;;;7.20;;
20454;SDS011;10386;54.314;10.022;2023-08-12T12:39:05;9.73;;;7.28;;
20454;SDS011;10386;54.314;10.022;2023-08-12T12:41:33;12.15;;;8.05;;
20454;SDS011;10386;54.314;10.022;2023-08-12T12:44:00;13.07;;;7.80;;
20454;SDS011;10386;54.314;10.022;2023-08-12T12:46:28;10.48;;;7.15;;
20454;SDS011;10386;54.314;10.022;2023-08-12T12:48:55;16.75;;;8.30;;
20454;SDS011;10386;54.314;10.022;2023-08-12T12:51:22;8.90;;;6.90;;
20454;SDS011;10386;54.314;10.022;2023-08-12T12:53:49;8.77;;;7.28;;
20454;SDS011;10386;54.314;10.022;2023-08-12T12:56:15;7.95;;;6.75;;
20454;SDS011;10386;54.314;10.022;2023-08-12T12:58:47;10.40;;;6.70;;
20454;SDS011;10386;54.314;10.022;2023-08-12T13:01:13;10.23;;;7.53;;
20454;SDS011;10386;54.314;10.022;2023-08-12T13:03:40;8.50;;;6.70;;
20454;SDS011;10386;54.314;10.022;2023-08-12T13:06:07;7.72;;;6.35;;
20454;SDS011;10386;54.314;10.022;2023-08-12T13:08:37;7.50;;;5.72;;
20454;SDS011;10386;54.314;10.022;2023-08-12T13:11:03;5.75;;;5.18;;
20454;SDS011;10386;54.314;10.022;2023-08-12T13:13:30;5.63;;;4.78;;
20454;SDS011;10386;54.314;10.022;2023-08-12T13:15:57;5.50;;;4.63;;
20454;SDS011;10386;54.314;10.022;2023-08-12T13:18:24;5.97;;;4.68;;
20454;SDS011;10386;54.314;10.022;2023-08-12T13:20:51;6.47;;;4.70;;
20454;SDS011;10386;54.314;10.022;2023-08-12T13:23:17;6.15;;;4.35;;
20454;SDS011;10386;54.314;10.022;2023-08-12T13:25:44;7.68;;;4.68;;
20454;SDS011;10386;54.314;10.022;2023-08-12T13:28:11;5.57;;;4.45;;
20454;SDS011;10386;54.314;10.022;2023-08-12T13:30:38;4.97;;;4.57;;
20454;SDS011;10386;54.314;10.022;2023-08-12T13:33:04;7.25;;;4.75;;
20454;SDS011;10386;54.314;10.022;2023-08-12T13:35:31;6.55;;;4.88;;
20454;SDS011;10386;54.314;10.022;2023-08-12T13:37:58;7.03;;;4.85;;
20454;SDS011;10386;54.314;10.022;2023-08-12T13:40:25;6.82;;;4.70;;
20454;SDS011;10386;54.314;10.022;2023-08-12T13:42:52;6.88;;;5.00;;
20454;SDS011;10386;54.314;10.022;2023-08-12T13:45:19;6.85;;;4.95;;
20454;SDS011;10386;54.314;10.022;2023-08-12T13:47:47;5.80;;;4.95;;
20454;SDS011;10386;54.314;10.022;2023-08-12T13:50:14;4.88;;;4.45;;
20454;SDS011;10386;54.314;10.022;2023-08-12T13:52:40;6.13;;;4.78;;
20454;SDS011;10386;54.314;10.022;2023-08-12T13:55:07;5.72;;;5.00;;
20454;SDS011;10386;54.314;10.022;2023-08-12T13:57:34;5.15;;;4.25;;
20454;SDS011;10386;54.314;10.022;2023-08-12T14:00:01;6.10;;;5.15;;
20454;SDS011;10386;54.314;10.022;2023-08-12T14:02:30;8.05;;;5.50;;
20454;SDS011;10386;54.314;10.022;2023-08-12T14:04:57;5.22;;;4.72;;
20454;SDS011;10386;54.314;10.022;2023-08-12T14:07:24;5.43;;;4.93;;
20454;SDS011;10386;54.314;10.022;2023-08-12T14:09:50;4.80;;;4.38;;
20454;SDS011;10386;54.314;10.022;2023-08-12T14:12:17;5.10;;;4.60;;
20454;SDS011;10386;54.314;10.022;2023-08-12T14:14:44;5.28;;;4.35;;
20454;SDS011;10386;54.314;10.022;2023-08-12T14:17:11;6.80;;;5.55;;
20454;SDS011;10386;54.314;10.022;2023-08-12T14:19:41;6.82;;;5.03;;
20454;SDS011;10386;54.314;10.022;2023-08-12T14:22:10;5.53;;;4.90;;
20454;SDS011;10386;54.314;10.022;2023-08-12T14:24:38;5.90;;;5.30;;
20454;SDS011;10386;54.314;10.022;2023-08-12T14:27:04;6.85;;;5.30;;
20454;SDS011;10386;54.314;10.022;2023-08-12T14:29:31;8.13;;;5.05;;
20454;SDS011;10386;54.314;10.022;2023-08-12T14:31:58;7.68;;;4.57;;
20454;SDS011;10386;54.314;10.022;2023-08-12T14:34:25;5.53;;;4.85;;
20454;SDS011;10386;54.314;10.022;2023-08-12T14:36:52;5.40;;;4.57;;
20454;SDS011;10386;54.314;10.022;2023-08-12T14:39:18;6.72;;;4.20;;
20454;SDS011;10386;54.314;10.022;2023-08-12T14:41:45;5.75;;;4.60;;
20454;SDS011;10386;54.314;10.022;2023-08-12T14:44:13;5.25;;;4.65;;